Time;durP1;ratioP1;P1;durP2;ratioP2;P2;SDS_P1;SDS_P2;PMS_P1;PMS_P2;Temp;Humidity;BMP_temperature;BMP_pressure;BME280_temperature;BME280_humidity;BME280_pressure;Samples;Min_cycle;Max_cycle;Signal;HPM_P1;HPM_P2
2022/11/01 00:01:03;;;;;;;23.77;12.63;;;14.00;99.90;;;;;;4951851;29;20089;-68
2022/11/01 00:03:28;;;;;;;21.95;12.35;;;14.00;99.90;;;;;;4954888;29;20130;-68
2022/11/01 00:05:54;;;;;;;23.58;12.85;;;13.90;99.90;;;;;;4951991;29;20039;-68
2022/11/01 00:08:19;;;;;;;26.08;12.30;;;14.00;99.90;;;;;;4952438;29;20402;-67
2022/11/01 00:10:45;;;;;;;22.67;12.20;;;14.00;99.90;;;;;;4953929;29;20043;-67
2022/11/01 00:13:10;;;;;;;21.60;12.38;;;14.00;99.90;;;;;;4953274;29;20039;-67
2022/11/01 00:15:36;;;;;;;19.73;11.27;;;14.10;99.90;;;;;;4941999;29;20521;-67
2022/11/01 00:18:02;;;;;;;24.30;11.65;;;14.10;99.90;;;;;;4951448;29;20043;-67
2022/11/01 00:20:27;;;;;;;24.27;11.55;;;14.10;99.90;;;;;;4954728;28;20031;-68
2022/11/01 00:22:53;;;;;;;22.70;11.35;;;14.10;99.90;;;;;;4944628;29;20410;-68
2022/11/01 00:25:18;;;;;;;22.70;11.60;;;14.20;99.90;;;;;;4949615;28;20043;-67
2022/11/01 00:27:44;;;;;;;23.90;11.77;;;14.20;99.90;;;;;;4954611;29;20490;-68
2022/11/01 00:30:10;;;;;;;20.00;11.30;;;14.20;99.90;;;;;;4945083;28;20190;-67
2022/11/01 00:32:35;;;;;;;22.98;11.70;;;14.20;99.90;;;;;;4945514;29;20042;-68
2022/11/01 00:35:01;;;;;;;20.63;11.52;;;14.20;99.90;;;;;;4953857;29;20035;-68
2022/11/01 00:37:28;;;;;;;22.27;11.77;;;14.20;99.90;;;;;;4954610;29;20043;-68
2022/11/01 00:39:53;;;;;;;24.77;12.73;;;14.20;99.90;;;;;;4945991;28;20049;-68
2022/11/01 00:42:19;;;;;;;23.95;11.68;;;14.20;99.90;;;;;;4953564;29;20035;-68
2022/11/01 00:44:45;;;;;;;21.92;11.55;;;14.30;99.90;;;;;;4954227;29;20098;-67
2022/11/01 00:47:10;;;;;;;20.98;11.60;;;14.20;99.90;;;;;;4950870;29;20035;-68
2022/11/01 00:49:36;;;;;;;19.58;11.45;;;14.20;99.90;;;;;;4950713;29;20401;-68
2022/11/01 00:52:01;;;;;;;17.92;11.13;;;14.30;99.90;;;;;;4952494;29;20154;-68
2022/11/01 00:54:27;;;;;;;19.27;10.88;;;14.30;99.90;;;;;;4953883;29;20050;-67
2022/11/01 00:56:53;;;;;;;25.67;11.52;;;14.30;99.90;;;;;;4944848;29;20047;-68
2022/11/01 00:59:19;;;;;;;20.63;10.63;;;14.30;99.90;;;;;;4940060;29;20523;-68
2022/11/01 01:01:45;;;;;;;22.20;11.63;;;14.30;99.90;;;;;;4953488;28;20047;-68
2022/11/01 01:04:10;;;;;;;24.95;11.52;;;14.30;99.90;;;;;;4949181;29;20445;-67
2022/11/01 01:06:36;;;;;;;18.80;11.20;;;14.30;99.90;;;;;;4942317;29;20086;-67
2022/11/01 01:09:02;;;;;;;19.20;10.52;;;14.30;99.90;;;;;;4933853;29;20095;-67
2022/11/01 01:11:28;;;;;;;18.95;10.27;;;14.30;99.90;;;;;;4954350;23;20051;-67
2022/11/01 01:13:53;;;;;;;21.65;11.32;;;14.30;99.90;;;;;;4950587;28;20098;-67
2022/11/01 01:16:19;;;;;;;20.83;10.70;;;14.40;99.90;;;;;;4928895;29;20559;-67
2022/11/01 01:18:45;;;;;;;19.55;11.07;;;14.40;99.90;;;;;;4953237;29;20050;-68
2022/11/01 01:21:12;;;;;;;22.63;10.45;;;14.40;99.90;;;;;;4941873;28;20047;-67
2022/11/01 01:23:38;;;;;;;21.25;10.82;;;14.40;99.90;;;;;;4952651;29;20094;-68
2022/11/01 01:26:09;;;;;;;17.30;10.05;;;14.50;99.90;;;;;;4953458;28;20471;-68
2022/11/01 01:28:35;;;;;;;20.08;10.18;;;14.50;99.90;;;;;;4950069;29;20520;-67
2022/11/01 01:31:06;;;;;;;22.45;9.48;;;14.50;99.90;;;;;;4950057;28;20043;-67
2022/11/01 01:33:31;;;;;;;18.00;9.40;;;14.50;99.90;;;;;;4953012;28;20054;-67
2022/11/01 01:36:03;;;;;;;19.67;9.75;;;14.60;99.90;;;;;;4952745;28;20121;-68
2022/11/01 01:38:28;;;;;;;20.13;10.35;;;14.50;99.90;;;;;;4935479;28;20410;-67
2022/11/01 01:40:54;;;;;;;19.52;9.88;;;14.60;99.90;;;;;;4938874;28;20036;-68
2022/11/01 01:43:20;;;;;;;22.70;9.57;;;14.60;99.90;;;;;;4952504;29;20071;-68
2022/11/01 01:45:46;;;;;;;18.70;9.45;;;14.60;99.90;;;;;;4953109;28;20042;-67
2022/11/01 01:48:26;;;;;;;19.55;9.10;;;14.50;99.90;;;;;;4939456;29;20050;-67
2022/11/01 01:51:02;;;;;;;18.77;9.27;;;14.50;99.90;;;;;;4949461;28;20066;-67
2022/11/01 01:53:31;;;;;;;20.98;9.85;;;14.50;99.90;;;;;;4931804;29;20414;-67
2022/11/01 01:56:01;;;;;;;19.80;9.57;;;14.50;99.90;;;;;;4937998;29;20047;-68
2022/11/01 01:58:31;;;;;;;20.40;9.37;;;14.50;99.90;;;;;;4952663;28;20125;-68
2022/11/01 02:00:58;;;;;;;17.95;8.75;;;14.50;99.90;;;;;;4952541;28;20573;-68
2022/11/01 02:03:29;;;;;;;16.17;8.40;;;14.50;99.90;;;;;;4942622;28;20848;-67
2022/11/01 02:06:11;;;;;;;20.23;9.38;;;14.50;99.90;;;;;;4952847;29;20118;-68
2022/11/01 02:08:42;;;;;;;19.25;9.38;;;14.50;99.90;;;;;;4933905;29;20042;-68
2022/11/01 02:11:09;;;;;;;18.20;8.93;;;14.50;99.90;;;;;;4933718;29;20047;-67
2022/11/01 02:13:36;;;;;;;20.50;9.48;;;14.60;99.90;;;;;;4946740;28;20625;-67
2022/11/01 02:16:21;;;;;;;18.10;9.32;;;14.60;99.90;;;;;;4950566;29;20058;-68
2022/11/01 02:19:18;;;;;;;22.20;9.63;;;14.60;99.90;;;;;;4952589;28;20047;-68
2022/11/01 02:22:05;;;;;;;15.70;8.68;;;14.60;99.90;;;;;;4935189;28;20055;-67
2022/11/01 02:24:51;;;;;;;16.30;8.70;;;14.60;99.90;;;;;;4945833;29;20039;-67
2022/11/01 02:27:41;;;;;;;17.92;8.95;;;14.60;99.90;;;;;;4947358;29;20590;-68
2022/11/01 02:30:19;;;;;;;21.67;9.15;;;14.60;99.90;;;;;;4940985;29;20047;-68
2022/11/01 02:32:53;;;;;;;17.27;8.82;;;14.60;99.90;;;;;;4952173;28;20171;-68
2022/11/01 02:35:26;;;;;;;20.33;8.50;;;14.70;99.90;;;;;;4952791;29;20409;-68
2022/11/01 02:38:34;;;;;;;18.13;8.52;;;14.70;99.90;;;;;;4939089;29;20040;-67
2022/11/01 02:41:18;;;;;;;17.38;8.40;;;14.70;99.90;;;;;;4916875;29;20075;-68
2022/11/01 02:44:11;;;;;;;13.23;7.75;;;14.80;99.90;;;;;;4949348;29;20071;-68
2022/11/01 02:49:25;;;;;;;16.98;7.93;;;14.90;99.90;;;;;;4956300;29;20054;-67
2022/11/01 02:51:53;;;;;;;14.73;7.88;;;14.90;99.90;;;;;;4956148;28;20035;-68
2022/11/01 02:54:32;;;;;;;15.02;8.18;;;14.90;99.90;;;;;;4944434;28;20055;-67
2022/11/01 02:57:27;;;;;;;15.00;7.93;;;15.00;99.90;;;;;;4952443;29;20051;-68
2022/11/01 03:00:01;;;;;;;17.05;7.82;;;15.00;99.90;;;;;;4951531;29;20055;-67
2022/11/01 03:02:40;;;;;;;15.90;7.65;;;15.00;99.90;;;;;;4939327;29;20054;-68
2022/11/01 03:05:15;;;;;;;13.25;7.15;;;15.00;99.90;;;;;;4953570;29;20087;-68
2022/11/01 03:07:45;;;;;;;13.88;7.35;;;15.10;99.90;;;;;;4955895;28;20112;-68
2022/11/01 03:10:11;;;;;;;16.92;7.70;;;15.10;99.90;;;;;;4951392;28;20126;-68
2022/11/01 03:12:50;;;;;;;17.95;7.63;;;15.10;99.90;;;;;;4954101;29;20617;-67
2022/11/01 03:15:28;;;;;;;14.98;7.80;;;15.20;99.90;;;;;;4955837;28;20043;-67
2022/11/01 03:18:10;;;;;;;12.00;6.80;;;15.30;99.90;;;;;;4946181;28;20051;-68
2022/11/01 03:20:46;;;;;;;14.32;6.95;;;15.30;99.90;;;;;;4941715;29;20040;-68
2022/11/01 03:23:22;;;;;;;13.45;6.88;;;15.40;99.90;;;;;;4955706;28;20054;-67
2022/11/01 03:25:54;;;;;;;13.80;7.18;;;15.50;99.90;;;;;;4952523;28;20066;-68
2022/11/01 03:28:31;;;;;;;13.40;6.57;;;15.50;99.90;;;;;;4953920;29;20078;-68
2022/11/01 03:31:08;;;;;;;13.57;6.70;;;15.60;99.90;;;;;;4957433;28;20154;-68
2022/11/01 03:33:38;;;;;;;13.70;6.70;;;15.60;99.90;;;;;;4954590;28;20039;-69
2022/11/01 03:36:09;;;;;;;15.05;6.93;;;15.70;99.90;;;;;;4944747;29;20097;-68
2022/11/01 03:38:38;;;;;;;14.10;7.10;;;15.60;99.90;;;;;;4955187;28;20046;-67
2022/11/01 03:41:09;;;;;;;14.35;7.18;;;15.60;99.90;;;;;;4955090;28;20078;-67
2022/11/01 03:43:35;;;;;;;13.02;6.47;;;15.50;99.90;;;;;;4946179;28;20062;-67
2022/11/01 03:46:01;;;;;;;12.75;6.88;;;15.40;99.90;;;;;;4947398;29;20035;-68
2022/11/01 03:48:27;;;;;;;13.15;6.10;;;15.40;99.90;;;;;;4956062;29;20043;-68
2022/11/01 03:50:56;;;;;;;11.55;6.85;;;15.40;99.90;;;;;;4948857;28;20035;-69
2022/11/01 03:53:22;;;;;;;14.57;6.72;;;15.40;99.90;;;;;;4944992;29;20049;-68
2022/11/01 03:55:48;;;;;;;11.40;6.20;;;15.40;99.90;;;;;;4955168;28;20098;-69
2022/11/01 03:58:14;;;;;;;16.52;6.70;;;15.50;99.90;;;;;;4955666;28;20043;-69
2022/11/01 04:00:44;;;;;;;12.57;6.10;;;15.50;99.90;;;;;;4948043;28;20044;-67
2022/11/01 04:03:11;;;;;;;18.15;6.88;;;15.50;99.90;;;;;;4954583;29;20031;-68
2022/11/01 04:05:38;;;;;;;12.82;6.60;;;15.50;99.90;;;;;;4955457;28;20075;-67
2022/11/01 04:08:05;;;;;;;14.15;6.70;;;15.50;99.90;;;;;;4944767;28;20454;-69
2022/11/01 04:10:30;;;;;;;12.00;6.40;;;15.50;99.90;;;;;;4946571;28;20128;-68
2022/11/01 04:12:56;;;;;;;15.68;6.45;;;15.50;99.90;;;;;;4953887;29;20114;-68
2022/11/01 04:21:22;;;;;;;12.73;6.50;;;15.60;99.90;;;;;;4954666;29;20543;-67
2022/11/01 04:23:47;;;;;;;11.77;5.95;;;15.70;99.90;;;;;;4943916;28;20036;-68
2022/11/01 04:26:19;;;;;;;16.60;6.47;;;15.80;99.90;;;;;;4947088;29;20450;-67
2022/11/01 04:28:55;;;;;;;11.88;6.38;;;15.90;99.90;;;;;;4954687;28;20466;-66
2022/11/01 04:31:33;;;;;;;12.57;6.30;;;16.00;99.90;;;;;;4953610;28;20040;-69
2022/11/01 04:34:00;;;;;;;9.60;5.85;;;16.00;99.90;;;;;;4941030;29;20123;-68
2022/11/01 04:36:26;;;;;;;15.23;6.22;;;16.00;99.90;;;;;;4955104;28;20410;-67
2022/11/01 04:38:56;;;;;;;15.80;6.20;;;15.90;99.90;;;;;;4955307;28;20043;-67
2022/11/01 04:41:23;;;;;;;13.50;5.95;;;15.90;99.90;;;;;;4946909;28;20047;-68
2022/11/01 04:43:51;;;;;;;14.70;6.40;;;15.90;99.90;;;;;;4945396;29;20054;-68
2022/11/01 04:46:17;;;;;;;13.98;6.72;;;15.90;99.90;;;;;;4955003;28;20042;-68
2022/11/01 04:48:43;;;;;;;13.90;6.00;;;15.80;99.90;;;;;;4955063;29;20118;-67
2022/11/01 04:51:09;;;;;;;13.07;6.65;;;15.80;99.90;;;;;;4941282;28;20047;-67
2022/11/01 04:53:35;;;;;;;13.85;6.57;;;15.90;99.90;;;;;;4949422;29;20039;-68
2022/11/01 04:56:02;;;;;;;13.00;6.10;;;15.80;99.90;;;;;;4954766;29;20055;-69
2022/11/01 04:58:28;;;;;;;16.35;6.47;;;15.80;99.90;;;;;;4942846;29;20051;-68
2022/11/01 05:00:54;;;;;;;17.88;6.85;;;15.80;99.90;;;;;;4953738;28;20046;-67
2022/11/01 05:03:20;;;;;;;16.48;6.95;;;15.80;99.90;;;;;;4954381;29;20050;-67
2022/11/01 05:05:45;;;;;;;13.38;6.40;;;15.90;99.90;;;;;;4954372;28;20050;-67
2022/11/01 05:08:12;;;;;;;15.35;6.32;;;15.80;99.90;;;;;;4942998;29;20047;-69
2022/11/01 05:10:43;;;;;;;12.43;6.70;;;15.80;99.90;;;;;;4949957;28;20031;-69
2022/11/01 05:13:10;;;;;;;13.07;6.90;;;15.80;99.90;;;;;;4954513;28;20122;-68
2022/11/01 05:15:36;;;;;;;10.18;6.35;;;15.80;99.90;;;;;;4941956;28;20406;-68
2022/11/01 05:18:02;;;;;;;13.25;6.55;;;15.80;99.90;;;;;;4952439;29;20035;-68
2022/11/01 05:20:29;;;;;;;12.25;6.20;;;15.80;99.90;;;;;;4946108;29;20098;-68
2022/11/01 05:23:02;;;;;;;12.88;5.97;;;15.80;99.90;;;;;;4949910;29;20046;-67
2022/11/01 05:25:29;;;;;;;14.05;6.72;;;15.80;99.90;;;;;;4935192;29;20573;-67
2022/11/01 05:28:05;;;;;;;10.35;6.10;;;15.90;99.90;;;;;;4942152;29;20069;-67
2022/11/01 05:30:32;;;;;;;11.48;6.45;;;15.90;99.90;;;;;;4938149;28;20063;-68
2022/11/01 05:32:59;;;;;;;12.00;6.47;;;15.80;99.90;;;;;;4946875;29;20405;-66
2022/11/01 05:35:26;;;;;;;17.25;6.38;;;15.80;99.90;;;;;;4946966;29;20047;-68
2022/11/01 05:37:52;;;;;;;10.07;5.90;;;15.90;99.90;;;;;;4943353;28;20051;-68
2022/11/01 05:40:18;;;;;;;11.95;5.18;;;15.90;99.90;;;;;;4940759;28;20098;-68
2022/11/01 05:42:43;;;;;;;10.20;6.25;;;15.90;99.90;;;;;;4945765;29;20043;-69
2022/11/01 05:45:09;;;;;;;11.98;5.93;;;16.00;99.90;;;;;;4948628;29;20043;-68
2022/11/01 05:47:35;;;;;;;8.98;5.30;;;15.90;99.90;;;;;;4944575;29;20042;-68
2022/11/01 05:50:01;;;;;;;8.40;4.60;;;15.90;99.90;;;;;;4944101;29;20035;-68
2022/11/01 05:52:27;;;;;;;12.95;4.68;;;15.90;99.90;;;;;;4946896;28;20508;-69
2022/11/01 05:54:52;;;;;;;10.70;4.80;;;15.80;99.90;;;;;;4951686;29;20099;-68
2022/11/01 05:57:18;;;;;;;9.00;4.80;;;15.80;99.90;;;;;;4942958;29;20130;-66
2022/11/01 05:59:43;;;;;;;10.25;4.47;;;15.90;99.90;;;;;;4948261;29;20039;-67
2022/11/01 06:02:09;;;;;;;5.70;3.50;;;16.00;99.90;;;;;;4953668;28;20043;-68
2022/11/01 06:04:34;;;;;;;5.07;2.90;;;15.80;99.90;;;;;;4942954;29;20039;-68
2022/11/01 06:07:00;;;;;;;8.75;2.50;;;15.80;99.90;;;;;;4944148;29;20050;-69
2022/11/01 06:09:26;;;;;;;7.28;3.10;;;15.70;99.90;;;;;;4950491;29;20039;-66
2022/11/01 06:11:51;;;;;;;6.47;2.90;;;15.70;99.90;;;;;;4950356;28;20158;-68
2022/11/01 06:14:17;;;;;;;4.95;2.63;;;15.60;99.90;;;;;;4941059;29;20053;-68
2022/11/01 06:16:43;;;;;;;9.73;3.03;;;15.50;99.90;;;;;;4946214;28;20064;-68
2022/11/01 06:19:08;;;;;;;5.70;2.30;;;15.40;99.90;;;;;;4950413;29;20058;-67
2022/11/01 06:21:34;;;;;;;7.78;2.40;;;15.30;99.90;;;;;;4941925;28;20059;-65
2022/11/01 06:24:00;;;;;;;7.80;2.67;;;15.20;99.90;;;;;;4942326;29;20102;-67
2022/11/01 06:26:25;;;;;;;3.75;2.08;;;15.10;99.90;;;;;;4951123;29;20081;-68
2022/11/01 06:28:51;;;;;;;4.50;2.20;;;15.00;99.90;;;;;;4951653;29;20493;-68
2022/11/01 06:31:16;;;;;;;9.35;2.42;;;14.80;99.90;;;;;;4935386;28;20075;-67
2022/11/01 06:33:42;;;;;;;3.65;1.90;;;14.80;99.90;;;;;;4944969;29;20046;-68
2022/11/01 06:36:08;;;;;;;6.40;2.15;;;14.80;99.90;;;;;;4951747;29;20055;-68
2022/11/01 06:38:33;;;;;;;5.10;1.70;;;14.80;99.90;;;;;;4939374;29;20498;-68
2022/11/01 06:40:59;;;;;;;5.65;1.90;;;14.80;99.90;;;;;;4947789;28;20110;-68
2022/11/01 06:43:25;;;;;;;3.90;1.60;;;14.70;99.90;;;;;;4950595;29;20561;-67
2022/11/01 06:45:51;;;;;;;4.88;1.58;;;14.70;99.90;;;;;;4948144;28;20118;-68
2022/11/01 06:48:16;;;;;;;5.93;1.95;;;14.60;99.90;;;;;;4943421;29;20118;-68
2022/11/01 06:50:42;;;;;;;10.05;2.40;;;14.60;99.90;;;;;;4949768;29;20042;-67
2022/11/01 06:53:08;;;;;;;3.20;1.75;;;14.50;99.90;;;;;;4950337;29;20133;-68
2022/11/01 06:55:34;;;;;;;3.90;2.03;;;14.30;99.90;;;;;;4936420;28;20387;-68
2022/11/01 06:58:02;;;;;;;3.28;2.00;;;14.30;99.90;;;;;;4952375;29;20051;-66
2022/11/01 07:00:29;;;;;;;5.25;2.08;;;14.30;99.90;;;;;;4952684;28;20043;-66
2022/11/01 07:03:04;;;;;;;3.72;1.80;;;14.30;99.90;;;;;;4945615;28;20039;-67
2022/11/01 07:05:32;;;;;;;5.45;1.90;;;14.30;99.90;;;;;;4944240;29;20051;-66
2022/11/01 07:07:59;;;;;;;3.42;1.80;;;14.20;99.90;;;;;;4952972;28;20048;-67
2022/11/01 07:10:25;;;;;;;4.15;1.75;;;14.20;99.90;;;;;;4973204;23;20040;-66
2022/11/01 07:12:55;;;;;;;4.63;1.90;;;14.10;99.90;;;;;;4931320;29;20047;-66
2022/11/01 07:15:21;;;;;;;3.60;1.95;;;14.00;99.90;;;;;;4933334;29;20051;-67
2022/11/01 07:17:46;;;;;;;4.00;1.70;;;14.10;99.90;;;;;;4933524;29;20086;-67
2022/11/01 07:20:12;;;;;;;5.90;1.60;;;14.10;99.90;;;;;;4930502;29;20036;-67
2022/11/01 07:22:38;;;;;;;6.57;1.60;;;14.10;99.90;;;;;;4928571;29;20059;-67
2022/11/01 07:25:04;;;;;;;4.90;1.77;;;14.10;99.90;;;;;;4933334;29;20067;-67
2022/11/01 07:27:30;;;;;;;9.93;1.65;;;14.10;99.90;;;;;;4924709;29;20062;-67
2022/11/01 07:29:55;;;;;;;2.80;1.67;;;14.20;99.90;;;;;;4914680;29;20490;-67
2022/11/01 07:32:21;;;;;;;3.63;1.50;;;14.20;99.90;;;;;;4932228;29;20040;-67
2022/11/01 07:34:46;;;;;;;4.60;1.60;;;14.20;99.90;;;;;;4936536;29;20043;-67
2022/11/01 07:37:12;;;;;;;6.07;1.45;;;14.30;99.90;;;;;;4928931;29;20123;-67
2022/11/01 07:39:37;;;;;;;4.60;1.52;;;14.30;99.90;;;;;;4930703;29;20522;-67
2022/11/01 07:42:03;;;;;;;4.40;1.40;;;14.40;99.90;;;;;;4936570;29;20098;-67
2022/11/01 07:44:29;;;;;;;4.20;1.65;;;14.40;99.90;;;;;;4932748;29;20047;-67
2022/11/01 07:46:54;;;;;;;2.97;1.40;;;14.50;99.90;;;;;;4931018;29;20052;-67
2022/11/01 07:49:20;;;;;;;6.22;1.63;;;14.50;99.90;;;;;;4936716;29;20032;-65
2022/11/01 07:51:45;;;;;;;5.38;1.50;;;14.50;99.90;;;;;;4932446;29;20533;-65
2022/11/01 07:54:11;;;;;;;8.88;1.70;;;14.50;99.90;;;;;;4929660;29;20047;-65
2022/11/01 07:56:37;;;;;;;4.15;1.83;;;14.50;99.90;;;;;;4936554;29;20055;-65
2022/11/01 07:59:02;;;;;;;10.35;1.75;;;14.50;99.90;;;;;;4918177;29;20043;-65
2022/11/01 08:01:28;;;;;;;8.02;1.90;;;14.50;99.90;;;;;;4921103;29;20153;-65
2022/11/01 08:03:53;;;;;;;7.22;1.48;;;14.50;99.90;;;;;;4932312;29;20406;-65
2022/11/01 08:06:19;;;;;;;5.95;1.50;;;14.50;99.90;;;;;;4936206;29;20051;-66
2022/11/01 08:08:45;;;;;;;9.55;1.67;;;14.50;99.90;;;;;;4936674;29;20498;-66
2022/11/01 08:11:10;;;;;;;10.20;1.95;;;14.50;99.90;;;;;;4930472;29;20084;-64
2022/11/01 08:13:36;;;;;;;10.65;2.05;;;14.50;99.90;;;;;;4930232;29;20039;-65
2022/11/01 08:16:02;;;;;;;12.52;1.90;;;14.50;99.90;;;;;;4936155;29;20050;-66
2022/11/01 08:18:28;;;;;;;6.88;1.95;;;14.50;99.90;;;;;;4924827;29;20052;-64
2022/11/01 08:20:53;;;;;;;4.45;1.63;;;14.50;99.90;;;;;;4925848;29;20071;-65
2022/11/01 08:23:19;;;;;;;8.55;1.80;;;14.50;99.90;;;;;;4935756;29;20158;-68
2022/11/01 08:25:45;;;;;;;9.52;2.78;;;14.50;99.90;;;;;;4933975;29;20044;-64
2022/11/01 08:28:16;;;;;;;13.73;2.30;;;14.60;99.90;;;;;;4929007;29;20724;-65
2022/11/01 08:30:43;;;;;;;7.57;2.15;;;14.60;99.90;;;;;;4935348;29;20039;-66
2022/11/01 08:33:09;;;;;;;9.80;1.90;;;14.60;99.90;;;;;;4936461;29;20035;-65
2022/11/01 08:35:35;;;;;;;9.57;1.88;;;14.60;99.90;;;;;;4924899;29;20071;-65
2022/11/01 08:38:02;;;;;;;6.63;2.00;;;14.70;99.90;;;;;;4934597;29;20131;-65
2022/11/01 08:40:28;;;;;;;12.20;2.00;;;14.60;99.90;;;;;;4935562;29;20458;-64
2022/11/01 08:42:54;;;;;;;7.75;1.92;;;14.70;99.90;;;;;;4935743;29;20039;-65
2022/11/01 08:45:20;;;;;;;8.07;2.05;;;14.60;99.90;;;;;;4922291;29;20047;-65
2022/11/01 08:47:45;;;;;;;9.95;2.20;;;14.70;99.90;;;;;;4933593;29;20055;-64
2022/11/01 08:50:13;;;;;;;9.38;2.10;;;14.80;99.90;;;;;;4935825;29;20044;-65
2022/11/01 08:52:39;;;;;;;9.80;2.50;;;14.80;99.90;;;;;;4925240;29;20128;-65
2022/11/01 08:55:06;;;;;;;10.90;2.42;;;14.80;99.90;;;;;;4932986;29;20142;-65
2022/11/01 08:57:31;;;;;;;12.00;2.40;;;14.80;99.90;;;;;;4926604;29;20044;-65
2022/11/01 08:59:57;;;;;;;11.55;2.17;;;14.80;99.90;;;;;;4930159;29;20043;-65
2022/11/01 09:02:23;;;;;;;12.10;2.00;;;14.80;99.90;;;;;;4934889;29;20123;-64
2022/11/01 09:04:48;;;;;;;16.90;2.47;;;14.90;99.90;;;;;;4935170;29;20109;-64
2022/11/01 09:07:14;;;;;;;7.75;2.08;;;14.90;99.90;;;;;;4928345;29;20070;-65
2022/11/01 09:09:39;;;;;;;11.27;2.20;;;14.80;99.90;;;;;;4918647;29;20036;-65
2022/11/01 09:12:05;;;;;;;11.50;2.38;;;14.80;99.90;;;;;;4932362;29;20039;-66
2022/11/01 09:14:31;;;;;;;11.48;2.42;;;14.90;99.90;;;;;;4934813;29;20039;-64
2022/11/01 09:16:57;;;;;;;14.77;2.25;;;14.90;99.90;;;;;;4920168;29;20228;-64
2022/11/01 09:19:22;;;;;;;9.63;2.28;;;15.00;99.90;;;;;;4934080;29;20391;-65
2022/11/01 09:21:48;;;;;;;18.15;2.55;;;15.00;99.90;;;;;;4927807;29;20043;-66
2022/11/01 09:24:15;;;;;;;12.18;2.78;;;15.00;99.90;;;;;;4921652;29;20076;-64
2022/11/01 09:26:41;;;;;;;11.20;2.88;;;15.10;99.90;;;;;;4932438;29;20047;-65
2022/11/01 09:29:07;;;;;;;14.50;2.42;;;15.10;99.90;;;;;;4933922;29;20499;-65
2022/11/01 09:31:33;;;;;;;15.63;2.92;;;15.10;99.90;;;;;;4934898;29;20086;-65
2022/11/01 09:33:59;;;;;;;13.00;2.75;;;15.10;99.90;;;;;;4927511;29;20039;-66
2022/11/01 09:36:26;;;;;;;9.68;2.40;;;15.10;99.90;;;;;;4921919;29;20154;-64
2022/11/01 09:38:52;;;;;;;8.80;2.10;;;15.10;99.90;;;;;;4934568;29;20039;-64
2022/11/01 09:41:38;;;;;;;13.30;2.80;;;15.10;99.90;;;;;;4928432;29;20078;-64
2022/11/01 09:44:07;;;;;;;16.00;2.70;;;15.20;99.90;;;;;;4927923;29;20040;-65
2022/11/01 09:46:44;;;;;;;13.20;2.40;;;15.20;99.90;;;;;;4924530;29;20434;-65
2022/11/01 09:49:15;;;;;;;9.65;2.13;;;15.20;99.90;;;;;;4932278;29;20050;-64
2022/11/01 09:51:41;;;;;;;14.65;2.63;;;15.20;99.90;;;;;;4933160;29;20039;-64
2022/11/01 09:54:09;;;;;;;12.18;2.70;;;15.20;99.90;;;;;;4934470;29;20044;-66
2022/11/01 09:56:55;;;;;;;16.42;2.25;;;15.30;99.90;;;;;;4923907;29;20059;-65
2022/11/01 09:59:29;;;;;;;14.23;2.72;;;15.30;99.90;;;;;;4916355;29;20040;-64
2022/11/01 10:02:17;;;;;;;12.05;2.60;;;15.30;99.90;;;;;;4926405;29;20043;-64
2022/11/01 10:05:05;;;;;;;10.77;2.10;;;15.40;99.90;;;;;;4931964;29;20044;-64
2022/11/01 10:07:41;;;;;;;12.65;2.20;;;15.40;99.90;;;;;;4932475;29;20048;-64
2022/11/01 10:10:33;;;;;;;12.32;2.67;;;15.40;99.90;;;;;;4921157;29;20050;-64
2022/11/01 10:13:17;;;;;;;10.65;1.92;;;15.40;99.90;;;;;;4930806;29;20055;-64
2022/11/01 10:16:07;;;;;;;16.38;2.63;;;15.50;99.90;;;;;;4922876;29;20040;-64
2022/11/01 10:18:50;;;;;;;13.77;2.63;;;15.50;99.90;;;;;;4927626;29;20094;-64
2022/11/01 10:21:18;;;;;;;11.55;2.67;;;15.40;99.90;;;;;;4933648;29;20040;-64
2022/11/01 10:23:51;;;;;;;16.60;3.00;;;15.40;99.90;;;;;;4920781;29;20075;-64
2022/11/01 10:26:22;;;;;;;12.07;2.00;;;15.40;99.90;;;;;;4933141;29;20054;-64
2022/11/01 10:28:50;;;;;;;11.65;2.40;;;15.50;99.90;;;;;;4934041;29;20534;-65
2022/11/01 10:31:20;;;;;;;12.00;2.60;;;15.40;99.90;;;;;;4928271;29;20044;-65
2022/11/01 10:34:03;;;;;;;15.43;2.90;;;15.60;99.90;;;;;;4932353;29;20043;-64
2022/11/01 10:36:33;;;;;;;12.55;2.75;;;15.50;99.90;;;;;;4933130;29;20562;-64
2022/11/01 10:39:22;;;;;;;10.20;2.50;;;15.50;99.90;;;;;;4934193;29;20542;-64
2022/11/01 10:41:51;;;;;;;10.00;2.53;;;15.40;99.90;;;;;;4914179;29;20051;-66
2022/11/01 10:44:53;;;;;;;9.85;2.30;;;15.40;99.90;;;;;;4918325;29;20036;-64
2022/11/01 10:47:21;;;;;;;9.88;2.55;;;15.50;99.90;;;;;;4931373;29;20522;-64
2022/11/01 10:50:25;;;;;;;12.98;2.40;;;15.50;99.90;;;;;;4925248;29;20071;-64
2022/11/01 10:52:59;;;;;;;17.15;3.08;;;15.50;99.90;;;;;;4928363;29;20047;-64
2022/11/01 10:55:45;;;;;;;10.98;2.30;;;15.70;99.90;;;;;;4933996;29;20091;-65
2022/11/01 10:58:27;;;;;;;12.95;2.40;;;15.80;99.90;;;;;;4925045;29;20099;-64
2022/11/01 11:00:52;;;;;;;;;;;15.80;99.90;;;;;;4933978;29;20130;-65
2022/11/01 11:03:19;;;;;;;11.93;2.47;;;15.90;99.90;;;;;;4933966;29;20009;-64
2022/11/01 11:05:46;;;;;;;14.50;2.40;;;15.90;99.90;;;;;;4930984;29;20075;-65
2022/11/01 11:08:16;;;;;;;9.57;2.42;;;15.80;99.90;;;;;;4932665;29;20075;-65
2022/11/01 11:10:43;;;;;;;12.75;2.47;;;15.80;99.90;;;;;;4937073;29;20379;-64
2022/11/01 11:13:09;;;;;;;12.23;2.95;;;15.80;99.90;;;;;;4926160;29;20036;-64
2022/11/01 11:15:51;;;;;;;9.32;2.17;;;15.80;99.90;;;;;;4929360;29;20086;-65
2022/11/01 11:18:28;;;;;;;13.23;2.55;;;15.90;99.90;;;;;;4935444;29;20039;-65
2022/11/01 11:21:12;;;;;;;16.75;2.47;;;15.80;99.90;;;;;;4931418;29;20123;-64
2022/11/01 11:23:44;;;;;;;10.38;2.35;;;16.00;99.90;;;;;;4926726;29;20044;-65
2022/11/01 11:26:15;;;;;;;10.30;2.13;;;16.00;99.90;;;;;;4937342;29;20047;-64
2022/11/01 11:28:50;;;;;;;12.05;2.60;;;16.00;99.90;;;;;;4937686;29;20054;-64
2022/11/01 11:31:31;;;;;;;14.60;2.58;;;16.20;99.90;;;;;;4922633;29;20043;-64
2022/11/01 11:34:26;;;;;;;14.25;2.65;;;16.30;99.90;;;;;;4933045;29;20122;-64
2022/11/01 11:36:53;;;;;;;11.68;2.67;;;16.20;99.90;;;;;;4937135;29;20051;-65
2022/11/01 11:39:24;;;;;;;11.98;2.40;;;16.30;99.90;;;;;;4918962;29;20070;-64
2022/11/01 11:41:50;;;;;;;9.82;2.50;;;16.50;99.90;;;;;;4935677;29;20110;-64
2022/11/01 11:44:39;;;;;;;9.73;2.28;;;16.50;99.90;;;;;;4925083;29;20578;-67
2022/11/01 11:47:15;;;;;;;13.43;3.33;;;16.40;99.90;;;;;;4931950;29;20031;-65
2022/11/01 11:49:41;;;;;;;12.13;2.15;;;16.40;99.90;;;;;;4932967;29;20107;-64
2022/11/01 11:52:16;;;;;;;10.18;2.20;;;16.30;99.90;;;;;;4928697;29;20466;-64
2022/11/01 11:54:42;;;;;;;10.73;2.53;;;16.30;99.90;;;;;;4922865;29;20517;-65
2022/11/01 11:57:23;;;;;;;11.90;2.08;;;16.20;99.90;;;;;;4933313;29;20040;-64
2022/11/01 12:00:01;;;;;;;13.23;2.33;;;16.20;99.90;;;;;;4935820;29;20063;-64
2022/11/01 12:02:34;;;;;;;11.63;2.67;;;16.10;99.90;;;;;;4935078;29;20048;-65
2022/11/01 12:05:03;;;;;;;12.40;2.30;;;16.10;99.90;;;;;;4927790;29;20043;-65
2022/11/01 12:07:50;;;;;;;14.45;2.55;;;16.10;99.90;;;;;;4935574;29;20056;-65
2022/11/01 12:10:36;;;;;;;11.77;2.20;;;16.20;99.90;;;;;;4934912;29;20036;-64
2022/11/01 12:13:20;;;;;;;12.52;2.50;;;16.20;99.90;;;;;;4930351;29;20518;-64
2022/11/01 12:15:45;;;;;;;9.98;2.50;;;16.30;99.90;;;;;;4934221;29;20028;-64
2022/11/01 12:18:15;;;;;;;10.70;2.50;;;16.30;99.90;;;;;;4936643;29;20495;-65
2022/11/01 12:20:41;;;;;;;11.70;2.40;;;16.40;99.90;;;;;;4930857;29;20055;-65
2022/11/01 12:23:27;;;;;;;10.77;2.58;;;16.40;99.90;;;;;;4922227;29;20055;-64
2022/11/01 12:25:54;;;;;;;9.23;2.50;;;16.30;99.90;;;;;;4935621;29;20048;-64
2022/11/01 12:28:34;;;;;;;11.50;2.33;;;16.30;99.90;;;;;;4930455;29;20043;-64
2022/11/01 12:31:11;;;;;;;9.40;2.08;;;16.30;99.90;;;;;;4917349;29;20048;-65
2022/11/01 12:33:41;;;;;;;8.07;2.00;;;16.30;99.90;;;;;;4935139;29;20118;-64
2022/11/01 12:36:08;;;;;;;6.57;1.75;;;16.30;99.90;;;;;;4934619;29;20410;-65
2022/11/01 12:38:37;;;;;;;6.75;1.75;;;16.30;99.90;;;;;;4930403;29;20055;-65
2022/11/01 12:41:47;;;;;;;8.90;2.17;;;16.30;99.90;;;;;;4934665;29;20111;-64
2022/11/01 12:44:31;;;;;;;9.02;2.08;;;16.30;99.90;;;;;;4930315;29;20079;-64
2022/11/01 12:47:01;;;;;;;7.82;2.08;;;16.20;99.90;;;;;;4930992;29;20119;-64
2022/11/01 12:49:43;;;;;;;8.55;2.22;;;16.30;99.90;;;;;;4935603;29;20083;-64
2022/11/01 12:52:40;;;;;;;11.60;1.95;;;16.30;99.90;;;;;;4935704;29;20040;-64
2022/11/01 12:55:18;;;;;;;7.57;1.85;;;16.30;99.90;;;;;;4924565;29;20103;-66
2022/11/01 12:57:44;;;;;;;7.68;1.92;;;16.40;99.90;;;;;;4918457;29;20059;-65
2022/11/01 13:00:14;;;;;;;10.40;2.00;;;16.40;99.90;;;;;;4931332;29;20035;-65
2022/11/01 13:02:57;;;;;;;8.02;2.00;;;16.30;99.90;;;;;;4922939;29;20047;-65